Terminal Aerodrome Forecast
Issued by NWS Jackson, KY

Home | Current Version | Previous Version | Text Only | Print | Product List | Glossary Off
Versions: 1 2 3 4 5 6 7 8 9 10 11 12 13 14 15 16 17 18 19 20 21 22

000
FTUS43 KJKL 301743
TAFLOZ
TAF
KLOZ 301743Z 3018/0118 VRB04KT P6SM OVC015
     FM301900 24005KT P6SM SCT020 BKN045
     FM010900 VRB03KT 4SM BR BKN040
     FM011300 VRB05KT P6SM SCT030 BKN060=

USA.gov is the U.S. government's official web portal to all federal, state and local government web resources and services.